sensor_id;sensor_type;location;lat;lon;timestamp;P1;durP1;ratioP1;P2;durP2;ratioP2
28756;SDS011;44294;48.282;14.282;2023-06-14T00:02:24;0.70;;;0.70;;
28756;SDS011;44294;48.282;14.282;2023-06-14T00:05:11;0.70;;;0.70;;
28756;SDS011;44294;48.282;14.282;2023-06-14T00:07:59;0.70;;;0.70;;
28756;SDS011;44294;48.282;14.282;2023-06-14T00:10:46;0.70;;;0.70;;
28756;SDS011;44294;48.282;14.282;2023-06-14T00:13:34;0.80;;;0.80;;
28756;SDS011;44294;48.282;14.282;2023-06-14T00:16:21;0.80;;;0.80;;
28756;SDS011;44294;48.282;14.282;2023-06-14T00:19:09;0.70;;;0.70;;
28756;SDS011;44294;48.282;14.282;2023-06-14T00:21:57;0.80;;;0.80;;
28756;SDS011;44294;48.282;14.282;2023-06-14T00:24:44;0.70;;;0.70;;
28756;SDS011;44294;48.282;14.282;2023-06-14T00:27:31;0.70;;;0.70;;
28756;SDS011;44294;48.282;14.282;2023-06-14T00:30:19;0.73;;;0.73;;
28756;SDS011;44294;48.282;14.282;2023-06-14T00:33:06;0.70;;;0.70;;
28756;SDS011;44294;48.282;14.282;2023-06-14T00:35:53;0.70;;;0.70;;
28756;SDS011;44294;48.282;14.282;2023-06-14T00:38:41;0.73;;;0.73;;
28756;SDS011;44294;48.282;14.282;2023-06-14T00:41:28;0.80;;;0.80;;
28756;SDS011;44294;48.282;14.282;2023-06-14T00:44:16;0.80;;;0.80;;
28756;SDS011;44294;48.282;14.282;2023-06-14T00:47:04;0.80;;;0.80;;
28756;SDS011;44294;48.282;14.282;2023-06-14T00:49:51;0.73;;;0.73;;
28756;SDS011;44294;48.282;14.282;2023-06-14T00:52:39;0.77;;;0.77;;
28756;SDS011;44294;48.282;14.282;2023-06-14T00:55:27;0.80;;;0.80;;
28756;SDS011;44294;48.282;14.282;2023-06-14T00:58:14;0.80;;;0.80;;
28756;SDS011;44294;48.282;14.282;2023-06-14T01:01:02;0.70;;;0.70;;
28756;SDS011;44294;48.282;14.282;2023-06-14T01:03:50;0.70;;;0.70;;
28756;SDS011;44294;48.282;14.282;2023-06-14T01:06:53;0.77;;;0.77;;
28756;SDS011;44294;48.282;14.282;2023-06-14T01:15:30;0.80;;;0.80;;
28756;SDS011;44294;48.282;14.282;2023-06-14T01:18:18;0.80;;;0.80;;
28756;SDS011;44294;48.282;14.282;2023-06-14T01:21:05;0.70;;;0.70;;
28756;SDS011;44294;48.282;14.282;2023-06-14T01:23:52;0.80;;;0.80;;
28756;SDS011;44294;48.282;14.282;2023-06-14T01:26:40;0.70;;;0.70;;
28756;SDS011;44294;48.282;14.282;2023-06-14T01:29:29;0.70;;;0.70;;
28756;SDS011;44294;48.282;14.282;2023-06-14T01:32:27;0.70;;;0.70;;
28756;SDS011;44294;48.282;14.282;2023-06-14T01:35:11;0.70;;;0.70;;
28756;SDS011;44294;48.282;14.282;2023-06-14T01:37:58;0.70;;;0.70;;
28756;SDS011;44294;48.282;14.282;2023-06-14T01:40:46;0.70;;;0.70;;
28756;SDS011;44294;48.282;14.282;2023-06-14T01:43:35;0.70;;;0.70;;
28756;SDS011;44294;48.282;14.282;2023-06-14T01:46:22;0.73;;;0.73;;
28756;SDS011;44294;48.282;14.282;2023-06-14T01:49:10;0.70;;;0.70;;
28756;SDS011;44294;48.282;14.282;2023-06-14T01:51:57;0.70;;;0.70;;
28756;SDS011;44294;48.282;14.282;2023-06-14T01:54:45;0.70;;;0.70;;
28756;SDS011;44294;48.282;14.282;2023-06-14T01:57:34;0.70;;;0.70;;
28756;SDS011;44294;48.282;14.282;2023-06-14T02:00:21;0.70;;;0.70;;
28756;SDS011;44294;48.282;14.282;2023-06-14T02:03:08;0.70;;;0.70;;
28756;SDS011;44294;48.282;14.282;2023-06-14T02:05:56;0.80;;;0.80;;
28756;SDS011;44294;48.282;14.282;2023-06-14T02:08:43;0.70;;;0.70;;
28756;SDS011;44294;48.282;14.282;2023-06-14T02:11:31;0.70;;;0.70;;
28756;SDS011;44294;48.282;14.282;2023-06-14T02:14:18;0.70;;;0.70;;
28756;SDS011;44294;48.282;14.282;2023-06-14T02:17:05;0.77;;;0.77;;
28756;SDS011;44294;48.282;14.282;2023-06-14T02:19:53;0.70;;;0.70;;
28756;SDS011;44294;48.282;14.282;2023-06-14T02:22:40;0.80;;;0.80;;
28756;SDS011;44294;48.282;14.282;2023-06-14T02:25:28;0.70;;;0.70;;
28756;SDS011;44294;48.282;14.282;2023-06-14T02:28:15;0.80;;;0.80;;
28756;SDS011;44294;48.282;14.282;2023-06-14T02:31:02;0.80;;;0.80;;
28756;SDS011;44294;48.282;14.282;2023-06-14T02:33:50;0.70;;;0.70;;
28756;SDS011;44294;48.282;14.282;2023-06-14T02:36:37;0.70;;;0.70;;
28756;SDS011;44294;48.282;14.282;2023-06-14T02:39:28;0.70;;;0.70;;
28756;SDS011;44294;48.282;14.282;2023-06-14T02:42:15;0.80;;;0.80;;
28756;SDS011;44294;48.282;14.282;2023-06-14T02:45:03;0.70;;;0.70;;
28756;SDS011;44294;48.282;14.282;2023-06-14T02:47:50;0.70;;;0.70;;
28756;SDS011;44294;48.282;14.282;2023-06-14T02:50:37;0.70;;;0.70;;
28756;SDS011;44294;48.282;14.282;2023-06-14T02:53:25;0.80;;;0.80;;
28756;SDS011;44294;48.282;14.282;2023-06-14T02:56:12;0.80;;;0.80;;
28756;SDS011;44294;48.282;14.282;2023-06-14T02:58:59;0.70;;;0.70;;
28756;SDS011;44294;48.282;14.282;2023-06-14T03:01:47;0.70;;;0.70;;
28756;SDS011;44294;48.282;14.282;2023-06-14T03:04:34;0.80;;;0.80;;
28756;SDS011;44294;48.282;14.282;2023-06-14T03:07:23;0.80;;;0.80;;
28756;SDS011;44294;48.282;14.282;2023-06-14T03:10:11;0.70;;;0.70;;
28756;SDS011;44294;48.282;14.282;2023-06-14T03:12:59;0.70;;;0.70;;
28756;SDS011;44294;48.282;14.282;2023-06-14T03:15:48;0.73;;;0.73;;
28756;SDS011;44294;48.282;14.282;2023-06-14T03:18:37;0.70;;;0.70;;
28756;SDS011;44294;48.282;14.282;2023-06-14T03:21:24;0.80;;;0.80;;
28756;SDS011;44294;48.282;14.282;2023-06-14T03:24:14;0.80;;;0.80;;
28756;SDS011;44294;48.282;14.282;2023-06-14T03:27:02;0.70;;;0.70;;
28756;SDS011;44294;48.282;14.282;2023-06-14T03:29:50;0.70;;;0.70;;
28756;SDS011;44294;48.282;14.282;2023-06-14T03:32:37;0.70;;;0.70;;
28756;SDS011;44294;48.282;14.282;2023-06-14T03:35:25;0.80;;;0.80;;
28756;SDS011;44294;48.282;14.282;2023-06-14T03:38:12;0.70;;;0.70;;
28756;SDS011;44294;48.282;14.282;2023-06-14T03:40:59;0.70;;;0.70;;
28756;SDS011;44294;48.282;14.282;2023-06-14T03:43:46;0.70;;;0.70;;
28756;SDS011;44294;48.282;14.282;2023-06-14T03:46:34;0.70;;;0.70;;
28756;SDS011;44294;48.282;14.282;2023-06-14T03:49:21;0.70;;;0.70;;
28756;SDS011;44294;48.282;14.282;2023-06-14T03:52:09;0.70;;;0.70;;
28756;SDS011;44294;48.282;14.282;2023-06-14T03:54:56;0.80;;;0.80;;
28756;SDS011;44294;48.282;14.282;2023-06-14T03:57:45;0.80;;;0.80;;
28756;SDS011;44294;48.282;14.282;2023-06-14T04:00:33;0.70;;;0.70;;
28756;SDS011;44294;48.282;14.282;2023-06-14T04:03:20;0.80;;;0.80;;
28756;SDS011;44294;48.282;14.282;2023-06-14T04:06:09;0.77;;;0.77;;
28756;SDS011;44294;48.282;14.282;2023-06-14T04:08:56;0.80;;;0.80;;
28756;SDS011;44294;48.282;14.282;2023-06-14T04:11:44;0.70;;;0.70;;
28756;SDS011;44294;48.282;14.282;2023-06-14T04:14:31;0.73;;;0.73;;
28756;SDS011;44294;48.282;14.282;2023-06-14T04:17:19;0.70;;;0.70;;
28756;SDS011;44294;48.282;14.282;2023-06-14T04:20:06;0.70;;;0.70;;
28756;SDS011;44294;48.282;14.282;2023-06-14T04:22:56;0.80;;;0.80;;
28756;SDS011;44294;48.282;14.282;2023-06-14T04:25:44;0.80;;;0.80;;
28756;SDS011;44294;48.282;14.282;2023-06-14T04:28:31;0.80;;;0.80;;
28756;SDS011;44294;48.282;14.282;2023-06-14T04:31:20;0.80;;;0.80;;
28756;SDS011;44294;48.282;14.282;2023-06-14T04:34:09;0.80;;;0.80;;
28756;SDS011;44294;48.282;14.282;2023-06-14T04:36:59;0.80;;;0.80;;
28756;SDS011;44294;48.282;14.282;2023-06-14T04:39:48;0.80;;;0.80;;
28756;SDS011;44294;48.282;14.282;2023-06-14T04:42:36;0.80;;;0.80;;
28756;SDS011;44294;48.282;14.282;2023-06-14T04:45:23;0.70;;;0.70;;
28756;SDS011;44294;48.282;14.282;2023-06-14T04:48:12;0.70;;;0.70;;
28756;SDS011;44294;48.282;14.282;2023-06-14T04:50:59;0.70;;;0.70;;
28756;SDS011;44294;48.282;14.282;2023-06-14T04:53:47;0.73;;;0.73;;
28756;SDS011;44294;48.282;14.282;2023-06-14T04:56:36;0.70;;;0.70;;
28756;SDS011;44294;48.282;14.282;2023-06-14T04:59:23;0.70;;;0.70;;
28756;SDS011;44294;48.282;14.282;2023-06-14T05:02:11;0.70;;;0.70;;
28756;SDS011;44294;48.282;14.282;2023-06-14T05:04:58;0.70;;;0.70;;
28756;SDS011;44294;48.282;14.282;2023-06-14T05:07:47;0.80;;;0.80;;
28756;SDS011;44294;48.282;14.282;2023-06-14T05:10:34;0.80;;;0.80;;
28756;SDS011;44294;48.282;14.282;2023-06-14T05:13:22;0.70;;;0.70;;
28756;SDS011;44294;48.282;14.282;2023-06-14T05:16:10;0.73;;;0.73;;
28756;SDS011;44294;48.282;14.282;2023-06-14T05:18:57;0.70;;;0.70;;
28756;SDS011;44294;48.282;14.282;2023-06-14T05:21:45;0.70;;;0.70;;
28756;SDS011;44294;48.282;14.282;2023-06-14T05:24:33;0.70;;;0.70;;
28756;SDS011;44294;48.282;14.282;2023-06-14T05:27:21;0.70;;;0.70;;
28756;SDS011;44294;48.282;14.282;2023-06-14T05:30:08;0.70;;;0.70;;
28756;SDS011;44294;48.282;14.282;2023-06-14T05:32:56;0.80;;;0.80;;
28756;SDS011;44294;48.282;14.282;2023-06-14T05:35:43;0.70;;;0.70;;
28756;SDS011;44294;48.282;14.282;2023-06-14T05:38:31;0.80;;;0.80;;
28756;SDS011;44294;48.282;14.282;2023-06-14T05:41:18;0.77;;;0.77;;
28756;SDS011;44294;48.282;14.282;2023-06-14T05:44:07;0.80;;;0.80;;
28756;SDS011;44294;48.282;14.282;2023-06-14T05:46:55;0.80;;;0.80;;
28756;SDS011;44294;48.282;14.282;2023-06-14T05:49:42;0.80;;;0.80;;
28756;SDS011;44294;48.282;14.282;2023-06-14T05:52:29;0.70;;;0.70;;
28756;SDS011;44294;48.282;14.282;2023-06-14T05:55:17;0.70;;;0.70;;
28756;SDS011;44294;48.282;14.282;2023-06-14T05:58:05;0.80;;;0.80;;
28756;SDS011;44294;48.282;14.282;2023-06-14T06:00:52;0.70;;;0.70;;
28756;SDS011;44294;48.282;14.282;2023-06-14T06:03:39;0.80;;;0.80;;
28756;SDS011;44294;48.282;14.282;2023-06-14T06:06:27;0.80;;;0.80;;
28756;SDS011;44294;48.282;14.282;2023-06-14T06:09:15;0.70;;;0.70;;
28756;SDS011;44294;48.282;14.282;2023-06-14T06:12:02;0.80;;;0.80;;
28756;SDS011;44294;48.282;14.282;2023-06-14T06:14:49;0.70;;;0.70;;
28756;SDS011;44294;48.282;14.282;2023-06-14T06:17:37;0.80;;;0.80;;
28756;SDS011;44294;48.282;14.282;2023-06-14T06:20:24;0.70;;;0.70;;
28756;SDS011;44294;48.282;14.282;2023-06-14T06:23:16;0.70;;;0.70;;
28756;SDS011;44294;48.282;14.282;2023-06-14T06:26:03;0.70;;;0.70;;
28756;SDS011;44294;48.282;14.282;2023-06-14T06:28:51;0.70;;;0.70;;
28756;SDS011;44294;48.282;14.282;2023-06-14T06:31:38;0.70;;;0.70;;
28756;SDS011;44294;48.282;14.282;2023-06-14T06:34:26;0.70;;;0.70;;
28756;SDS011;44294;48.282;14.282;2023-06-14T06:37:13;0.70;;;0.70;;
28756;SDS011;44294;48.282;14.282;2023-06-14T06:40:01;0.70;;;0.70;;
28756;SDS011;44294;48.282;14.282;2023-06-14T06:42:50;0.60;;;0.60;;
28756;SDS011;44294;48.282;14.282;2023-06-14T06:45:37;0.70;;;0.70;;
28756;SDS011;44294;48.282;14.282;2023-06-14T06:48:24;0.70;;;0.70;;
28756;SDS011;44294;48.282;14.282;2023-06-14T06:51:12;0.70;;;0.70;;
28756;SDS011;44294;48.282;14.282;2023-06-14T06:53:59;0.70;;;0.70;;
28756;SDS011;44294;48.282;14.282;2023-06-14T06:56:47;0.70;;;0.70;;
28756;SDS011;44294;48.282;14.282;2023-06-14T06:59:34;0.80;;;0.80;;
28756;SDS011;44294;48.282;14.282;2023-06-14T07:02:21;0.70;;;0.70;;
28756;SDS011;44294;48.282;14.282;2023-06-14T07:05:09;0.80;;;0.80;;
28756;SDS011;44294;48.282;14.282;2023-06-14T07:07:56;0.80;;;0.80;;
28756;SDS011;44294;48.282;14.282;2023-06-14T07:10:43;0.60;;;0.60;;
28756;SDS011;44294;48.282;14.282;2023-06-14T07:13:31;0.70;;;0.70;;
28756;SDS011;44294;48.282;14.282;2023-06-14T07:16:18;0.70;;;0.70;;
28756;SDS011;44294;48.282;14.282;2023-06-14T07:19:06;0.60;;;0.60;;
28756;SDS011;44294;48.282;14.282;2023-06-14T07:21:55;0.70;;;0.70;;
28756;SDS011;44294;48.282;14.282;2023-06-14T07:24:42;0.70;;;0.70;;
28756;SDS011;44294;48.282;14.282;2023-06-14T07:27:30;0.70;;;0.70;;
28756;SDS011;44294;48.282;14.282;2023-06-14T07:30:17;0.70;;;0.70;;
28756;SDS011;44294;48.282;14.282;2023-06-14T07:33:04;0.60;;;0.60;;
28756;SDS011;44294;48.282;14.282;2023-06-14T07:35:52;0.60;;;0.60;;
28756;SDS011;44294;48.282;14.282;2023-06-14T07:38:39;0.60;;;0.60;;
28756;SDS011;44294;48.282;14.282;2023-06-14T07:41:27;0.60;;;0.60;;
28756;SDS011;44294;48.282;14.282;2023-06-14T07:44:14;0.60;;;0.60;;
28756;SDS011;44294;48.282;14.282;2023-06-14T07:47:02;0.60;;;0.60;;
28756;SDS011;44294;48.282;14.282;2023-06-14T07:49:49;0.60;;;0.60;;
28756;SDS011;44294;48.282;14.282;2023-06-14T07:52:37;0.60;;;0.60;;
28756;SDS011;44294;48.282;14.282;2023-06-14T07:55:24;0.60;;;0.60;;
28756;SDS011;44294;48.282;14.282;2023-06-14T07:58:11;0.60;;;0.60;;
28756;SDS011;44294;48.282;14.282;2023-06-14T08:00:58;0.60;;;0.60;;
28756;SDS011;44294;48.282;14.282;2023-06-14T08:03:47;0.70;;;0.70;;
28756;SDS011;44294;48.282;14.282;2023-06-14T08:06:35;0.60;;;0.60;;
28756;SDS011;44294;48.282;14.282;2023-06-14T08:09:22;0.60;;;0.60;;
28756;SDS011;44294;48.282;14.282;2023-06-14T08:12:11;0.60;;;0.60;;
28756;SDS011;44294;48.282;14.282;2023-06-14T08:14:58;0.60;;;0.60;;
28756;SDS011;44294;48.282;14.282;2023-06-14T08:17:46;0.60;;;0.60;;
28756;SDS011;44294;48.282;14.282;2023-06-14T08:20:33;0.60;;;0.60;;
28756;SDS011;44294;48.282;14.282;2023-06-14T08:23:21;0.60;;;0.60;;
28756;SDS011;44294;48.282;14.282;2023-06-14T08:26:09;0.60;;;0.60;;
28756;SDS011;44294;48.282;14.282;2023-06-14T08:28:56;0.60;;;0.60;;
28756;SDS011;44294;48.282;14.282;2023-06-14T08:31:43;0.60;;;0.60;;
28756;SDS011;44294;48.282;14.282;2023-06-14T08:34:31;0.60;;;0.60;;
28756;SDS011;44294;48.282;14.282;2023-06-14T08:37:18;0.60;;;0.60;;
28756;SDS011;44294;48.282;14.282;2023-06-14T08:40:07;0.60;;;0.60;;
28756;SDS011;44294;48.282;14.282;2023-06-14T08:42:56;0.60;;;0.60;;
28756;SDS011;44294;48.282;14.282;2023-06-14T08:45:45;0.60;;;0.60;;
28756;SDS011;44294;48.282;14.282;2023-06-14T08:48:33;0.60;;;0.60;;
28756;SDS011;44294;48.282;14.282;2023-06-14T08:51:20;0.60;;;0.60;;
28756;SDS011;44294;48.282;14.282;2023-06-14T08:54:09;0.60;;;0.60;;
28756;SDS011;44294;48.282;14.282;2023-06-14T08:56:57;0.60;;;0.60;;
28756;SDS011;44294;48.282;14.282;2023-06-14T08:59:46;0.60;;;0.60;;
28756;SDS011;44294;48.282;14.282;2023-06-14T09:02:35;0.60;;;0.60;;
28756;SDS011;44294;48.282;14.282;2023-06-14T09:05:23;0.50;;;0.50;;
28756;SDS011;44294;48.282;14.282;2023-06-14T09:08:10;0.60;;;0.60;;
28756;SDS011;44294;48.282;14.282;2023-06-14T09:10:58;0.50;;;0.50;;
28756;SDS011;44294;48.282;14.282;2023-06-14T09:13:45;0.60;;;0.60;;
28756;SDS011;44294;48.282;14.282;2023-06-14T09:16:33;0.60;;;0.60;;
28756;SDS011;44294;48.282;14.282;2023-06-14T09:19:24;0.57;;;0.57;;
28756;SDS011;44294;48.282;14.282;2023-06-14T09:22:11;0.60;;;0.60;;
28756;SDS011;44294;48.282;14.282;2023-06-14T09:24:58;0.60;;;0.60;;
28756;SDS011;44294;48.282;14.282;2023-06-14T09:27:46;0.60;;;0.60;;
28756;SDS011;44294;48.282;14.282;2023-06-14T09:30:35;0.60;;;0.60;;
28756;SDS011;44294;48.282;14.282;2023-06-14T09:33:22;0.60;;;0.60;;
28756;SDS011;44294;48.282;14.282;2023-06-14T09:36:11;0.60;;;0.60;;
28756;SDS011;44294;48.282;14.282;2023-06-14T09:38:59;0.60;;;0.60;;
28756;SDS011;44294;48.282;14.282;2023-06-14T09:41:47;0.60;;;0.60;;
28756;SDS011;44294;48.282;14.282;2023-06-14T09:44:34;0.60;;;0.60;;
28756;SDS011;44294;48.282;14.282;2023-06-14T09:47:22;0.60;;;0.60;;
28756;SDS011;44294;48.282;14.282;2023-06-14T09:50:10;0.60;;;0.60;;
28756;SDS011;44294;48.282;14.282;2023-06-14T09:52:59;0.60;;;0.60;;
28756;SDS011;44294;48.282;14.282;2023-06-14T09:55:46;0.60;;;0.60;;
28756;SDS011;44294;48.282;14.282;2023-06-14T09:58:34;0.50;;;0.50;;
28756;SDS011;44294;48.282;14.282;2023-06-14T10:01:23;0.60;;;0.60;;
28756;SDS011;44294;48.282;14.282;2023-06-14T10:04:13;0.50;;;0.50;;
28756;SDS011;44294;48.282;14.282;2023-06-14T10:07:01;0.60;;;0.60;;
28756;SDS011;44294;48.282;14.282;2023-06-14T10:09:50;0.50;;;0.50;;
28756;SDS011;44294;48.282;14.282;2023-06-14T10:12:37;0.50;;;0.50;;
28756;SDS011;44294;48.282;14.282;2023-06-14T10:15:30;0.53;;;0.53;;
28756;SDS011;44294;48.282;14.282;2023-06-14T10:21:28;0.50;;;0.50;;
28756;SDS011;44294;48.282;14.282;2023-06-14T10:24:15;0.50;;;0.50;;
28756;SDS011;44294;48.282;14.282;2023-06-14T10:27:03;0.60;;;0.60;;
28756;SDS011;44294;48.282;14.282;2023-06-14T10:35:48;0.50;;;0.50;;
28756;SDS011;44294;48.282;14.282;2023-06-14T10:38:36;0.53;;;0.53;;
28756;SDS011;44294;48.282;14.282;2023-06-14T10:41:26;0.60;;;0.60;;
28756;SDS011;44294;48.282;14.282;2023-06-14T10:47:05;0.50;;;0.50;;
28756;SDS011;44294;48.282;14.282;2023-06-14T10:49:53;0.50;;;0.50;;
28756;SDS011;44294;48.282;14.282;2023-06-14T10:52:41;0.40;;;0.40;;
28756;SDS011;44294;48.282;14.282;2023-06-14T10:55:30;0.50;;;0.50;;
28756;SDS011;44294;48.282;14.282;2023-06-14T10:58:18;0.50;;;0.50;;
28756;SDS011;44294;48.282;14.282;2023-06-14T11:01:06;0.50;;;0.50;;
28756;SDS011;44294;48.282;14.282;2023-06-14T11:03:53;0.50;;;0.50;;
28756;SDS011;44294;48.282;14.282;2023-06-14T11:06:48;0.50;;;0.50;;
28756;SDS011;44294;48.282;14.282;2023-06-14T11:12:31;0.50;;;0.50;;
28756;SDS011;44294;48.282;14.282;2023-06-14T11:15:19;0.50;;;0.50;;
28756;SDS011;44294;48.282;14.282;2023-06-14T11:18:07;0.50;;;0.50;;
28756;SDS011;44294;48.282;14.282;2023-06-14T11:20:56;0.60;;;0.60;;
28756;SDS011;44294;48.282;14.282;2023-06-14T11:23:48;0.50;;;0.50;;
28756;SDS011;44294;48.282;14.282;2023-06-14T11:26:33;0.50;;;0.50;;
28756;SDS011;44294;48.282;14.282;2023-06-14T11:29:21;0.50;;;0.50;;
28756;SDS011;44294;48.282;14.282;2023-06-14T11:32:09;0.60;;;0.60;;
28756;SDS011;44294;48.282;14.282;2023-06-14T11:34:58;0.50;;;0.50;;
28756;SDS011;44294;48.282;14.282;2023-06-14T11:37:45;0.50;;;0.50;;
28756;SDS011;44294;48.282;14.282;2023-06-14T11:40:34;0.50;;;0.50;;
28756;SDS011;44294;48.282;14.282;2023-06-14T11:43:21;0.60;;;0.60;;
28756;SDS011;44294;48.282;14.282;2023-06-14T11:46:12;0.50;;;0.50;;
28756;SDS011;44294;48.282;14.282;2023-06-14T11:49:02;0.50;;;0.50;;
28756;SDS011;44294;48.282;14.282;2023-06-14T11:51:50;0.50;;;0.50;;
28756;SDS011;44294;48.282;14.282;2023-06-14T11:54:38;0.50;;;0.50;;
28756;SDS011;44294;48.282;14.282;2023-06-14T11:57:27;0.50;;;0.50;;
28756;SDS011;44294;48.282;14.282;2023-06-14T12:00:14;0.50;;;0.50;;
28756;SDS011;44294;48.282;14.282;2023-06-14T12:03:03;0.60;;;0.60;;
28756;SDS011;44294;48.282;14.282;2023-06-14T12:05:50;0.50;;;0.50;;
28756;SDS011;44294;48.282;14.282;2023-06-14T12:08:37;0.50;;;0.50;;
28756;SDS011;44294;48.282;14.282;2023-06-14T12:11:32;0.50;;;0.50;;
28756;SDS011;44294;48.282;14.282;2023-06-14T12:14:20;0.50;;;0.50;;
28756;SDS011;44294;48.282;14.282;2023-06-14T12:17:07;0.57;;;0.57;;
28756;SDS011;44294;48.282;14.282;2023-06-14T12:19:54;0.50;;;0.50;;
28756;SDS011;44294;48.282;14.282;2023-06-14T12:25:40;0.60;;;0.60;;
28756;SDS011;44294;48.282;14.282;2023-06-14T12:28:30;0.60;;;0.60;;
28756;SDS011;44294;48.282;14.282;2023-06-14T12:31:17;0.60;;;0.60;;
28756;SDS011;44294;48.282;14.282;2023-06-14T12:34:05;0.60;;;0.60;;
28756;SDS011;44294;48.282;14.282;2023-06-14T12:36:52;0.60;;;0.60;;
28756;SDS011;44294;48.282;14.282;2023-06-14T12:39:40;0.70;;;0.70;;
28756;SDS011;44294;48.282;14.282;2023-06-14T12:42:27;0.60;;;0.60;;
28756;SDS011;44294;48.282;14.282;2023-06-14T12:45:15;0.60;;;0.60;;
28756;SDS011;44294;48.282;14.282;2023-06-14T12:48:02;0.60;;;0.60;;
28756;SDS011;44294;48.282;14.282;2023-06-14T12:50:50;0.60;;;0.60;;
28756;SDS011;44294;48.282;14.282;2023-06-14T12:53:37;0.60;;;0.60;;
28756;SDS011;44294;48.282;14.282;2023-06-14T12:56:24;0.60;;;0.60;;
28756;SDS011;44294;48.282;14.282;2023-06-14T12:59:12;0.70;;;0.70;;
28756;SDS011;44294;48.282;14.282;2023-06-14T13:02:09;0.60;;;0.60;;
28756;SDS011;44294;48.282;14.282;2023-06-14T13:04:48;0.60;;;0.60;;
28756;SDS011;44294;48.282;14.282;2023-06-14T13:07:36;0.70;;;0.70;;
28756;SDS011;44294;48.282;14.282;2023-06-14T13:10:23;0.70;;;0.70;;
28756;SDS011;44294;48.282;14.282;2023-06-14T13:13:10;0.70;;;0.70;;
28756;SDS011;44294;48.282;14.282;2023-06-14T13:15:58;0.60;;;0.60;;
28756;SDS011;44294;48.282;14.282;2023-06-14T13:18:46;0.60;;;0.60;;
28756;SDS011;44294;48.282;14.282;2023-06-14T13:21:33;0.80;;;0.80;;
28756;SDS011;44294;48.282;14.282;2023-06-14T13:24:21;0.70;;;0.70;;
28756;SDS011;44294;48.282;14.282;2023-06-14T13:27:08;0.70;;;0.70;;
28756;SDS011;44294;48.282;14.282;2023-06-14T13:29:57;0.70;;;0.70;;
28756;SDS011;44294;48.282;14.282;2023-06-14T13:32:44;0.70;;;0.70;;
28756;SDS011;44294;48.282;14.282;2023-06-14T13:35:31;0.70;;;0.70;;
28756;SDS011;44294;48.282;14.282;2023-06-14T13:38:19;0.70;;;0.70;;
28756;SDS011;44294;48.282;14.282;2023-06-14T13:41:06;0.60;;;0.60;;
28756;SDS011;44294;48.282;14.282;2023-06-14T13:43:53;0.70;;;0.70;;
28756;SDS011;44294;48.282;14.282;2023-06-14T13:46:41;0.70;;;0.70;;
28756;SDS011;44294;48.282;14.282;2023-06-14T13:49:28;0.60;;;0.60;;
28756;SDS011;44294;48.282;14.282;2023-06-14T13:52:17;0.70;;;0.70;;
28756;SDS011;44294;48.282;14.282;2023-06-14T13:55:04;0.60;;;0.60;;
28756;SDS011;44294;48.282;14.282;2023-06-14T13:57:52;0.70;;;0.70;;
28756;SDS011;44294;48.282;14.282;2023-06-14T14:00:39;0.70;;;0.70;;
28756;SDS011;44294;48.282;14.282;2023-06-14T14:03:26;0.70;;;0.70;;
28756;SDS011;44294;48.282;14.282;2023-06-14T14:06:14;0.70;;;0.70;;
28756;SDS011;44294;48.282;14.282;2023-06-14T14:09:01;0.70;;;0.70;;
28756;SDS011;44294;48.282;14.282;2023-06-14T14:11:48;0.70;;;0.70;;
28756;SDS011;44294;48.282;14.282;2023-06-14T14:14:36;0.60;;;0.60;;
28756;SDS011;44294;48.282;14.282;2023-06-14T14:17:23;0.60;;;0.60;;
28756;SDS011;44294;48.282;14.282;2023-06-14T14:20:11;0.70;;;0.70;;
28756;SDS011;44294;48.282;14.282;2023-06-14T14:23:00;0.70;;;0.70;;
28756;SDS011;44294;48.282;14.282;2023-06-14T14:25:48;0.70;;;0.70;;
28756;SDS011;44294;48.282;14.282;2023-06-14T14:28:35;0.70;;;0.70;;
28756;SDS011;44294;48.282;14.282;2023-06-14T14:31:23;0.60;;;0.60;;
28756;SDS011;44294;48.282;14.282;2023-06-14T14:34:10;0.60;;;0.60;;
28756;SDS011;44294;48.282;14.282;2023-06-14T14:36:57;0.60;;;0.60;;
28756;SDS011;44294;48.282;14.282;2023-06-14T14:39:45;0.70;;;0.70;;
28756;SDS011;44294;48.282;14.282;2023-06-14T14:42:32;0.60;;;0.60;;
28756;SDS011;44294;48.282;14.282;2023-06-14T14:45:20;0.60;;;0.60;;
28756;SDS011;44294;48.282;14.282;2023-06-14T14:48:07;0.60;;;0.60;;
28756;SDS011;44294;48.282;14.282;2023-06-14T14:50:54;0.70;;;0.70;;
28756;SDS011;44294;48.282;14.282;2023-06-14T14:53:42;0.70;;;0.70;;
28756;SDS011;44294;48.282;14.282;2023-06-14T14:56:29;0.60;;;0.60;;
28756;SDS011;44294;48.282;14.282;2023-06-14T14:59:16;0.60;;;0.60;;
28756;SDS011;44294;48.282;14.282;2023-06-14T15:02:05;0.60;;;0.60;;
28756;SDS011;44294;48.282;14.282;2023-06-14T15:04:52;0.60;;;0.60;;
28756;SDS011;44294;48.282;14.282;2023-06-14T15:07:40;0.60;;;0.60;;
28756;SDS011;44294;48.282;14.282;2023-06-14T15:10:28;0.60;;;0.60;;
28756;SDS011;44294;48.282;14.282;2023-06-14T15:13:18;0.60;;;0.60;;
28756;SDS011;44294;48.282;14.282;2023-06-14T15:16:06;0.70;;;0.70;;
28756;SDS011;44294;48.282;14.282;2023-06-14T15:18:53;0.60;;;0.60;;
28756;SDS011;44294;48.282;14.282;2023-06-14T15:21:41;0.60;;;0.60;;
28756;SDS011;44294;48.282;14.282;2023-06-14T15:24:28;0.60;;;0.60;;
28756;SDS011;44294;48.282;14.282;2023-06-14T15:27:17;0.60;;;0.60;;
28756;SDS011;44294;48.282;14.282;2023-06-14T15:30:05;0.60;;;0.60;;
28756;SDS011;44294;48.282;14.282;2023-06-14T15:32:52;0.60;;;0.60;;
28756;SDS011;44294;48.282;14.282;2023-06-14T15:35:40;0.60;;;0.60;;
28756;SDS011;44294;48.282;14.282;2023-06-14T15:38:27;0.60;;;0.60;;
28756;SDS011;44294;48.282;14.282;2023-06-14T15:41:14;0.60;;;0.60;;
28756;SDS011;44294;48.282;14.282;2023-06-14T15:44:02;0.60;;;0.60;;
28756;SDS011;44294;48.282;14.282;2023-06-14T15:46:49;0.60;;;0.60;;
28756;SDS011;44294;48.282;14.282;2023-06-14T15:49:36;0.60;;;0.60;;
28756;SDS011;44294;48.282;14.282;2023-06-14T15:52:24;0.60;;;0.60;;
28756;SDS011;44294;48.282;14.282;2023-06-14T15:55:11;0.50;;;0.50;;
28756;SDS011;44294;48.282;14.282;2023-06-14T15:57:59;0.60;;;0.60;;
28756;SDS011;44294;48.282;14.282;2023-06-14T16:00:46;0.60;;;0.60;;
28756;SDS011;44294;48.282;14.282;2023-06-14T16:03:34;0.70;;;0.70;;
28756;SDS011;44294;48.282;14.282;2023-06-14T16:06:22;0.60;;;0.60;;
28756;SDS011;44294;48.282;14.282;2023-06-14T16:09:09;0.60;;;0.60;;
28756;SDS011;44294;48.282;14.282;2023-06-14T16:11:56;0.60;;;0.60;;
28756;SDS011;44294;48.282;14.282;2023-06-14T16:14:44;0.60;;;0.60;;
28756;SDS011;44294;48.282;14.282;2023-06-14T16:17:31;0.60;;;0.60;;
28756;SDS011;44294;48.282;14.282;2023-06-14T16:20:18;0.60;;;0.60;;
28756;SDS011;44294;48.282;14.282;2023-06-14T16:23:06;0.60;;;0.60;;
28756;SDS011;44294;48.282;14.282;2023-06-14T16:25:53;0.60;;;0.60;;
28756;SDS011;44294;48.282;14.282;2023-06-14T16:28:41;0.70;;;0.70;;
28756;SDS011;44294;48.282;14.282;2023-06-14T16:31:28;0.60;;;0.60;;
28756;SDS011;44294;48.282;14.282;2023-06-14T16:34:15;0.70;;;0.70;;
28756;SDS011;44294;48.282;14.282;2023-06-14T16:37:03;0.70;;;0.70;;
28756;SDS011;44294;48.282;14.282;2023-06-14T16:39:50;0.80;;;0.80;;
28756;SDS011;44294;48.282;14.282;2023-06-14T16:42:37;0.60;;;0.60;;
28756;SDS011;44294;48.282;14.282;2023-06-14T16:45:25;0.70;;;0.70;;
28756;SDS011;44294;48.282;14.282;2023-06-14T16:48:12;0.70;;;0.70;;
28756;SDS011;44294;48.282;14.282;2023-06-14T16:51:00;0.70;;;0.70;;
28756;SDS011;44294;48.282;14.282;2023-06-14T16:53:47;0.60;;;0.60;;
28756;SDS011;44294;48.282;14.282;2023-06-14T16:56:34;0.60;;;0.60;;
28756;SDS011;44294;48.282;14.282;2023-06-14T16:59:22;0.70;;;0.70;;